sensor_id;sensor_type;location;lat;lon;timestamp;P1;durP1;ratioP1;P2;durP2;ratioP2
12480;SDS011;6305;48.398;11.762;2023-01-05T00:00:59;0.70;;;0.70;;
12480;SDS011;6305;48.398;11.762;2023-01-05T00:03:27;0.82;;;0.60;;
12480;SDS011;6305;48.398;11.762;2023-01-05T00:05:57;0.70;;;0.63;;
12480;SDS011;6305;48.398;11.762;2023-01-05T00:08:27;0.65;;;0.60;;
12480;SDS011;6305;48.398;11.762;2023-01-05T00:10:56;0.60;;;0.60;;
12480;SDS011;6305;48.398;11.762;2023-01-05T00:13:40;0.90;;;0.70;;
12480;SDS011;6305;48.398;11.762;2023-01-05T00:16:24;0.60;;;0.60;;
12480;SDS011;6305;48.398;11.762;2023-01-05T00:19:09;1.00;;;0.80;;
12480;SDS011;6305;48.398;11.762;2023-01-05T00:21:54;1.00;;;0.77;;
12480;SDS011;6305;48.398;11.762;2023-01-05T00:24:40;1.13;;;0.90;;
12480;SDS011;6305;48.398;11.762;2023-01-05T00:27:07;0.85;;;0.70;;
12480;SDS011;6305;48.398;11.762;2023-01-05T00:29:34;1.00;;;0.80;;
12480;SDS011;6305;48.398;11.762;2023-01-05T00:32:01;0.73;;;0.70;;
12480;SDS011;6305;48.398;11.762;2023-01-05T00:34:29;1.15;;;0.60;;
12480;SDS011;6305;48.398;11.762;2023-01-05T00:36:56;0.93;;;0.70;;
12480;SDS011;6305;48.398;11.762;2023-01-05T00:39:23;0.60;;;0.60;;
12480;SDS011;6305;48.398;11.762;2023-01-05T00:41:52;1.38;;;0.70;;
12480;SDS011;6305;48.398;11.762;2023-01-05T00:44:20;0.80;;;0.70;;
12480;SDS011;6305;48.398;11.762;2023-01-05T00:46:47;1.40;;;0.70;;
12480;SDS011;6305;48.398;11.762;2023-01-05T00:49:14;1.02;;;0.80;;
12480;SDS011;6305;48.398;11.762;2023-01-05T00:51:41;1.20;;;0.85;;
12480;SDS011;6305;48.398;11.762;2023-01-05T00:54:08;0.82;;;0.60;;
12480;SDS011;6305;48.398;11.762;2023-01-05T00:56:35;0.70;;;0.70;;
12480;SDS011;6305;48.398;11.762;2023-01-05T00:59:04;0.60;;;0.60;;
12480;SDS011;6305;48.398;11.762;2023-01-05T01:01:31;0.70;;;0.70;;
12480;SDS011;6305;48.398;11.762;2023-01-05T01:03:58;0.60;;;0.60;;
12480;SDS011;6305;48.398;11.762;2023-01-05T01:06:25;0.63;;;0.60;;
12480;SDS011;6305;48.398;11.762;2023-01-05T01:08:53;0.50;;;0.50;;
12480;SDS011;6305;48.398;11.762;2023-01-05T01:11:20;0.88;;;0.60;;
12480;SDS011;6305;48.398;11.762;2023-01-05T01:13:47;1.00;;;0.80;;
12480;SDS011;6305;48.398;11.762;2023-01-05T01:16:16;0.60;;;0.60;;
12480;SDS011;6305;48.398;11.762;2023-01-05T01:18:49;0.80;;;0.77;;
12480;SDS011;6305;48.398;11.762;2023-01-05T01:21:19;0.75;;;0.75;;
12480;SDS011;6305;48.398;11.762;2023-01-05T01:23:46;1.13;;;0.98;;
12480;SDS011;6305;48.398;11.762;2023-01-05T01:26:15;0.77;;;0.68;;
12480;SDS011;6305;48.398;11.762;2023-01-05T01:28:45;1.33;;;0.70;;
12480;SDS011;6305;48.398;11.762;2023-01-05T01:31:20;1.90;;;0.88;;
12480;SDS011;6305;48.398;11.762;2023-01-05T01:33:51;0.90;;;0.77;;
12480;SDS011;6305;48.398;11.762;2023-01-05T01:36:19;0.70;;;0.70;;
12480;SDS011;6305;48.398;11.762;2023-01-05T01:38:46;0.80;;;0.75;;
12480;SDS011;6305;48.398;11.762;2023-01-05T01:41:13;0.93;;;0.60;;
12480;SDS011;6305;48.398;11.762;2023-01-05T01:43:44;1.50;;;0.70;;
12480;SDS011;6305;48.398;11.762;2023-01-05T01:46:15;0.68;;;0.68;;
12480;SDS011;6305;48.398;11.762;2023-01-05T01:48:46;0.70;;;0.60;;
12480;SDS011;6305;48.398;11.762;2023-01-05T01:51:16;1.35;;;0.70;;
12480;SDS011;6305;48.398;11.762;2023-01-05T01:53:46;0.60;;;0.60;;
12480;SDS011;6305;48.398;11.762;2023-01-05T01:56:17;0.80;;;0.70;;
12480;SDS011;6305;48.398;11.762;2023-01-05T01:58:49;0.88;;;0.85;;
12480;SDS011;6305;48.398;11.762;2023-01-05T02:01:18;0.80;;;0.70;;
12480;SDS011;6305;48.398;11.762;2023-01-05T02:03:46;0.70;;;0.70;;
12480;SDS011;6305;48.398;11.762;2023-01-05T02:06:14;0.80;;;0.80;;
12480;SDS011;6305;48.398;11.762;2023-01-05T02:08:41;0.82;;;0.60;;
12480;SDS011;6305;48.398;11.762;2023-01-05T02:11:15;1.25;;;0.80;;
12480;SDS011;6305;48.398;11.762;2023-01-05T02:13:54;0.85;;;0.75;;
12480;SDS011;6305;48.398;11.762;2023-01-05T02:16:39;0.60;;;0.50;;
12480;SDS011;6305;48.398;11.762;2023-01-05T02:19:21;0.90;;;0.60;;
12480;SDS011;6305;48.398;11.762;2023-01-05T02:22:17;1.13;;;0.90;;
12480;SDS011;6305;48.398;11.762;2023-01-05T02:25:05;0.98;;;0.90;;
12480;SDS011;6305;48.398;11.762;2023-01-05T02:28:02;0.73;;;0.68;;
12480;SDS011;6305;48.398;11.762;2023-01-05T02:33:39;0.60;;;0.55;;
12480;SDS011;6305;48.398;11.762;2023-01-05T02:36:23;1.02;;;0.50;;
12480;SDS011;6305;48.398;11.762;2023-01-05T02:38:56;0.80;;;0.70;;
12480;SDS011;6305;48.398;11.762;2023-01-05T02:41:29;1.38;;;0.75;;
12480;SDS011;6305;48.398;11.762;2023-01-05T02:43:59;0.75;;;0.63;;
12480;SDS011;6305;48.398;11.762;2023-01-05T02:46:28;0.52;;;0.52;;
12480;SDS011;6305;48.398;11.762;2023-01-05T02:48:57;0.93;;;0.60;;
12480;SDS011;6305;48.398;11.762;2023-01-05T02:51:27;0.75;;;0.60;;
12480;SDS011;6305;48.398;11.762;2023-01-05T02:54:04;0.63;;;0.60;;
12480;SDS011;6305;48.398;11.762;2023-01-05T02:56:36;2.30;;;0.75;;
12480;SDS011;6305;48.398;11.762;2023-01-05T02:59:10;0.70;;;0.40;;
12480;SDS011;6305;48.398;11.762;2023-01-05T03:01:44;0.57;;;0.55;;
12480;SDS011;6305;48.398;11.762;2023-01-05T03:04:15;0.95;;;0.60;;
12480;SDS011;6305;48.398;11.762;2023-01-05T03:06:48;0.50;;;0.50;;
12480;SDS011;6305;48.398;11.762;2023-01-05T03:09:21;0.80;;;0.60;;
12480;SDS011;6305;48.398;11.762;2023-01-05T03:11:54;0.40;;;0.40;;
12480;SDS011;6305;48.398;11.762;2023-01-05T03:14:45;0.50;;;0.50;;
12480;SDS011;6305;48.398;11.762;2023-01-05T03:17:18;1.85;;;0.65;;
12480;SDS011;6305;48.398;11.762;2023-01-05T03:19:51;0.68;;;0.55;;
12480;SDS011;6305;48.398;11.762;2023-01-05T03:22:23;0.77;;;0.68;;
12480;SDS011;6305;48.398;11.762;2023-01-05T03:25:10;0.70;;;0.70;;
12480;SDS011;6305;48.398;11.762;2023-01-05T03:27:59;0.82;;;0.70;;
12480;SDS011;6305;48.398;11.762;2023-01-05T03:30:48;0.60;;;0.60;;
12480;SDS011;6305;48.398;11.762;2023-01-05T03:33:44;0.80;;;0.57;;
12480;SDS011;6305;48.398;11.762;2023-01-05T03:36:35;0.73;;;0.70;;
12480;SDS011;6305;48.398;11.762;2023-01-05T03:39:09;0.50;;;0.47;;
12480;SDS011;6305;48.398;11.762;2023-01-05T03:41:39;0.70;;;0.70;;
12480;SDS011;6305;48.398;11.762;2023-01-05T03:44:06;0.60;;;0.55;;
12480;SDS011;6305;48.398;11.762;2023-01-05T03:46:37;0.50;;;0.50;;
12480;SDS011;6305;48.398;11.762;2023-01-05T03:49:06;0.73;;;0.70;;
12480;SDS011;6305;48.398;11.762;2023-01-05T03:51:33;0.55;;;0.52;;
12480;SDS011;6305;48.398;11.762;2023-01-05T03:54:00;0.73;;;0.57;;
12480;SDS011;6305;48.398;11.762;2023-01-05T03:56:30;0.93;;;0.60;;
12480;SDS011;6305;48.398;11.762;2023-01-05T03:58:57;0.70;;;0.70;;
12480;SDS011;6305;48.398;11.762;2023-01-05T04:01:24;1.23;;;0.70;;
12480;SDS011;6305;48.398;11.762;2023-01-05T04:03:52;1.27;;;0.70;;
12480;SDS011;6305;48.398;11.762;2023-01-05T04:06:20;0.70;;;0.70;;
12480;SDS011;6305;48.398;11.762;2023-01-05T04:08:47;0.60;;;0.50;;
12480;SDS011;6305;48.398;11.762;2023-01-05T04:11:15;0.77;;;0.57;;
12480;SDS011;6305;48.398;11.762;2023-01-05T04:14:04;0.43;;;0.43;;
12480;SDS011;6305;48.398;11.762;2023-01-05T04:16:32;0.63;;;0.55;;
12480;SDS011;6305;48.398;11.762;2023-01-05T04:19:07;0.90;;;0.70;;
12480;SDS011;6305;48.398;11.762;2023-01-05T04:21:37;0.90;;;0.70;;
12480;SDS011;6305;48.398;11.762;2023-01-05T04:24:04;0.60;;;0.60;;
12480;SDS011;6305;48.398;11.762;2023-01-05T04:26:34;0.70;;;0.65;;
12480;SDS011;6305;48.398;11.762;2023-01-05T04:29:03;0.75;;;0.75;;
12480;SDS011;6305;48.398;11.762;2023-01-05T04:31:32;1.05;;;0.70;;
12480;SDS011;6305;48.398;11.762;2023-01-05T04:33:59;1.08;;;0.82;;
12480;SDS011;6305;48.398;11.762;2023-01-05T04:36:26;0.70;;;0.70;;
12480;SDS011;6305;48.398;11.762;2023-01-05T04:38:57;0.70;;;0.70;;
12480;SDS011;6305;48.398;11.762;2023-01-05T04:41:24;0.90;;;0.70;;
12480;SDS011;6305;48.398;11.762;2023-01-05T04:43:52;0.80;;;0.70;;
12480;SDS011;6305;48.398;11.762;2023-01-05T04:46:19;0.80;;;0.80;;
12480;SDS011;6305;48.398;11.762;2023-01-05T04:48:48;1.15;;;0.98;;
12480;SDS011;6305;48.398;11.762;2023-01-05T04:51:18;0.60;;;0.60;;
12480;SDS011;6305;48.398;11.762;2023-01-05T04:53:45;0.70;;;0.70;;
12480;SDS011;6305;48.398;11.762;2023-01-05T04:56:17;0.80;;;0.75;;
12480;SDS011;6305;48.398;11.762;2023-01-05T04:58:45;0.60;;;0.60;;
12480;SDS011;6305;48.398;11.762;2023-01-05T05:01:12;0.70;;;0.68;;
12480;SDS011;6305;48.398;11.762;2023-01-05T05:03:41;0.60;;;0.60;;
12480;SDS011;6305;48.398;11.762;2023-01-05T05:06:12;0.75;;;0.70;;
12480;SDS011;6305;48.398;11.762;2023-01-05T05:08:41;0.80;;;0.65;;
12480;SDS011;6305;48.398;11.762;2023-01-05T05:11:08;0.70;;;0.60;;
12480;SDS011;6305;48.398;11.762;2023-01-05T05:13:39;0.70;;;0.70;;
12480;SDS011;6305;48.398;11.762;2023-01-05T05:16:06;0.80;;;0.68;;
12480;SDS011;6305;48.398;11.762;2023-01-05T05:18:34;1.02;;;0.47;;
12480;SDS011;6305;48.398;11.762;2023-01-05T05:21:02;0.60;;;0.60;;
12480;SDS011;6305;48.398;11.762;2023-01-05T05:23:33;0.60;;;0.60;;
12480;SDS011;6305;48.398;11.762;2023-01-05T05:26:00;0.73;;;0.60;;
12480;SDS011;6305;48.398;11.762;2023-01-05T05:28:28;1.30;;;0.77;;
12480;SDS011;6305;48.398;11.762;2023-01-05T05:30:56;0.60;;;0.60;;
12480;SDS011;6305;48.398;11.762;2023-01-05T05:33:23;0.50;;;0.50;;
12480;SDS011;6305;48.398;11.762;2023-01-05T05:35:51;0.75;;;0.70;;
12480;SDS011;6305;48.398;11.762;2023-01-05T05:38:18;0.93;;;0.70;;
12480;SDS011;6305;48.398;11.762;2023-01-05T05:40:46;0.60;;;0.60;;
12480;SDS011;6305;48.398;11.762;2023-01-05T05:43:13;0.50;;;0.50;;
12480;SDS011;6305;48.398;11.762;2023-01-05T05:45:41;0.68;;;0.60;;
12480;SDS011;6305;48.398;11.762;2023-01-05T05:48:09;0.65;;;0.63;;
12480;SDS011;6305;48.398;11.762;2023-01-05T05:50:36;0.63;;;0.63;;
12480;SDS011;6305;48.398;11.762;2023-01-05T05:53:04;0.77;;;0.63;;
12480;SDS011;6305;48.398;11.762;2023-01-05T05:55:31;0.60;;;0.60;;
12480;SDS011;6305;48.398;11.762;2023-01-05T05:57:58;1.35;;;0.80;;
12480;SDS011;6305;48.398;11.762;2023-01-05T06:00:25;0.63;;;0.63;;
12480;SDS011;6305;48.398;11.762;2023-01-05T06:02:52;0.80;;;0.80;;
12480;SDS011;6305;48.398;11.762;2023-01-05T06:05:21;0.70;;;0.70;;
12480;SDS011;6305;48.398;11.762;2023-01-05T06:07:48;0.70;;;0.70;;
12480;SDS011;6305;48.398;11.762;2023-01-05T06:10:15;0.60;;;0.60;;
12480;SDS011;6305;48.398;11.762;2023-01-05T06:12:42;1.75;;;0.73;;
12480;SDS011;6305;48.398;11.762;2023-01-05T06:15:09;0.60;;;0.60;;
12480;SDS011;6305;48.398;11.762;2023-01-05T06:17:36;0.65;;;0.65;;
12480;SDS011;6305;48.398;11.762;2023-01-05T06:20:04;0.60;;;0.60;;
12480;SDS011;6305;48.398;11.762;2023-01-05T06:22:34;0.60;;;0.60;;
12480;SDS011;6305;48.398;11.762;2023-01-05T06:25:01;1.10;;;0.60;;
12480;SDS011;6305;48.398;11.762;2023-01-05T06:27:28;0.60;;;0.60;;
12480;SDS011;6305;48.398;11.762;2023-01-05T06:29:55;1.20;;;0.70;;
12480;SDS011;6305;48.398;11.762;2023-01-05T06:32:22;0.77;;;0.77;;
12480;SDS011;6305;48.398;11.762;2023-01-05T06:34:49;0.70;;;0.70;;
12480;SDS011;6305;48.398;11.762;2023-01-05T06:37:16;1.33;;;0.90;;
12480;SDS011;6305;48.398;11.762;2023-01-05T06:39:44;0.80;;;0.80;;
12480;SDS011;6305;48.398;11.762;2023-01-05T06:42:11;0.70;;;0.70;;
12480;SDS011;6305;48.398;11.762;2023-01-05T06:44:38;0.70;;;0.70;;
12480;SDS011;6305;48.398;11.762;2023-01-05T06:47:06;1.00;;;0.90;;
12480;SDS011;6305;48.398;11.762;2023-01-05T06:49:33;0.73;;;0.73;;
12480;SDS011;6305;48.398;11.762;2023-01-05T06:52:00;0.75;;;0.75;;
12480;SDS011;6305;48.398;11.762;2023-01-05T06:54:27;1.10;;;0.90;;
12480;SDS011;6305;48.398;11.762;2023-01-05T06:56:55;1.25;;;0.90;;
12480;SDS011;6305;48.398;11.762;2023-01-05T06:59:22;1.08;;;0.90;;
12480;SDS011;6305;48.398;11.762;2023-01-05T07:01:49;0.70;;;0.70;;
12480;SDS011;6305;48.398;11.762;2023-01-05T07:04:16;0.68;;;0.68;;
12480;SDS011;6305;48.398;11.762;2023-01-05T07:06:43;0.90;;;0.90;;
12480;SDS011;6305;48.398;11.762;2023-01-05T07:09:10;1.00;;;0.90;;
12480;SDS011;6305;48.398;11.762;2023-01-05T07:11:37;0.80;;;0.80;;
12480;SDS011;6305;48.398;11.762;2023-01-05T07:14:05;1.60;;;1.05;;
12480;SDS011;6305;48.398;11.762;2023-01-05T07:16:32;1.40;;;0.90;;
12480;SDS011;6305;48.398;11.762;2023-01-05T07:18:59;1.10;;;1.00;;
12480;SDS011;6305;48.398;11.762;2023-01-05T07:21:26;1.02;;;0.93;;
12480;SDS011;6305;48.398;11.762;2023-01-05T07:23:53;1.27;;;1.10;;
12480;SDS011;6305;48.398;11.762;2023-01-05T07:26:20;2.38;;;0.88;;
12480;SDS011;6305;48.398;11.762;2023-01-05T07:28:47;1.83;;;0.90;;
12480;SDS011;6305;48.398;11.762;2023-01-05T07:31:15;1.35;;;1.00;;
12480;SDS011;6305;48.398;11.762;2023-01-05T07:33:42;1.13;;;1.00;;
12480;SDS011;6305;48.398;11.762;2023-01-05T07:36:09;1.45;;;1.27;;
12480;SDS011;6305;48.398;11.762;2023-01-05T07:38:36;1.15;;;1.05;;
12480;SDS011;6305;48.398;11.762;2023-01-05T07:41:03;0.80;;;0.73;;
12480;SDS011;6305;48.398;11.762;2023-01-05T07:43:30;0.90;;;0.90;;
12480;SDS011;6305;48.398;11.762;2023-01-05T07:45:57;1.30;;;1.17;;
12480;SDS011;6305;48.398;11.762;2023-01-05T07:48:26;1.25;;;1.15;;
12480;SDS011;6305;48.398;11.762;2023-01-05T07:50:57;0.90;;;0.90;;
12480;SDS011;6305;48.398;11.762;2023-01-05T07:53:26;0.93;;;0.93;;
12480;SDS011;6305;48.398;11.762;2023-01-05T07:55:54;1.23;;;1.10;;
12480;SDS011;6305;48.398;11.762;2023-01-05T07:58:22;0.90;;;0.90;;
12480;SDS011;6305;48.398;11.762;2023-01-05T08:00:49;0.93;;;0.90;;
12480;SDS011;6305;48.398;11.762;2023-01-05T08:03:16;1.95;;;1.20;;
12480;SDS011;6305;48.398;11.762;2023-01-05T08:05:44;1.08;;;1.00;;
12480;SDS011;6305;48.398;11.762;2023-01-05T08:08:12;1.02;;;0.93;;
12480;SDS011;6305;48.398;11.762;2023-01-05T08:10:40;1.00;;;0.93;;
12480;SDS011;6305;48.398;11.762;2023-01-05T08:13:08;2.30;;;0.90;;
12480;SDS011;6305;48.398;11.762;2023-01-05T08:15:54;1.00;;;0.90;;
12480;SDS011;6305;48.398;11.762;2023-01-05T08:18:24;1.20;;;1.10;;
12480;SDS011;6305;48.398;11.762;2023-01-05T08:20:54;1.00;;;0.90;;
12480;SDS011;6305;48.398;11.762;2023-01-05T08:23:22;1.48;;;1.08;;
12480;SDS011;6305;48.398;11.762;2023-01-05T08:25:50;1.27;;;0.70;;
12480;SDS011;6305;48.398;11.762;2023-01-05T08:28:17;1.13;;;0.90;;
12480;SDS011;6305;48.398;11.762;2023-01-05T08:30:45;1.27;;;1.05;;
12480;SDS011;6305;48.398;11.762;2023-01-05T08:33:12;1.88;;;1.08;;
12480;SDS011;6305;48.398;11.762;2023-01-05T08:35:39;1.38;;;1.05;;
12480;SDS011;6305;48.398;11.762;2023-01-05T08:38:08;1.02;;;0.80;;
12480;SDS011;6305;48.398;11.762;2023-01-05T08:40:36;1.30;;;0.98;;
12480;SDS011;6305;48.398;11.762;2023-01-05T08:43:03;1.13;;;1.00;;
12480;SDS011;6305;48.398;11.762;2023-01-05T08:45:31;0.73;;;0.73;;
12480;SDS011;6305;48.398;11.762;2023-01-05T08:47:59;0.80;;;0.80;;
12480;SDS011;6305;48.398;11.762;2023-01-05T08:50:27;1.10;;;0.88;;
12480;SDS011;6305;48.398;11.762;2023-01-05T08:52:54;0.73;;;0.73;;
12480;SDS011;6305;48.398;11.762;2023-01-05T08:55:23;1.48;;;1.27;;
12480;SDS011;6305;48.398;11.762;2023-01-05T08:57:50;1.48;;;1.02;;
12480;SDS011;6305;48.398;11.762;2023-01-05T09:00:17;1.08;;;0.82;;
12480;SDS011;6305;48.398;11.762;2023-01-05T09:02:46;2.42;;;0.90;;
12480;SDS011;6305;48.398;11.762;2023-01-05T09:05:13;1.48;;;0.70;;
12480;SDS011;6305;48.398;11.762;2023-01-05T09:07:40;0.82;;;0.60;;
12480;SDS011;6305;48.398;11.762;2023-01-05T09:10:09;0.57;;;0.57;;
12480;SDS011;6305;48.398;11.762;2023-01-05T09:12:40;0.90;;;0.70;;
12480;SDS011;6305;48.398;11.762;2023-01-05T09:15:10;1.23;;;0.75;;
12480;SDS011;6305;48.398;11.762;2023-01-05T09:17:37;1.30;;;0.80;;
12480;SDS011;6305;48.398;11.762;2023-01-05T09:20:04;0.95;;;0.70;;
12480;SDS011;6305;48.398;11.762;2023-01-05T09:22:32;1.20;;;0.75;;
12480;SDS011;6305;48.398;11.762;2023-01-05T09:25:00;1.27;;;0.80;;
12480;SDS011;6305;48.398;11.762;2023-01-05T09:27:27;1.65;;;0.90;;
12480;SDS011;6305;48.398;11.762;2023-01-05T09:29:56;1.08;;;0.77;;
12480;SDS011;6305;48.398;11.762;2023-01-05T09:32:23;1.85;;;0.70;;
12480;SDS011;6305;48.398;11.762;2023-01-05T09:34:50;1.48;;;0.90;;
12480;SDS011;6305;48.398;11.762;2023-01-05T09:37:17;3.92;;;0.85;;
12480;SDS011;6305;48.398;11.762;2023-01-05T09:39:45;0.80;;;0.70;;
12480;SDS011;6305;48.398;11.762;2023-01-05T09:42:13;2.05;;;1.00;;
12480;SDS011;6305;48.398;11.762;2023-01-05T09:44:43;1.27;;;0.80;;
12480;SDS011;6305;48.398;11.762;2023-01-05T09:47:16;1.88;;;0.80;;
12480;SDS011;6305;48.398;11.762;2023-01-05T09:49:48;1.20;;;0.90;;
12480;SDS011;6305;48.398;11.762;2023-01-05T09:52:17;1.77;;;0.90;;
12480;SDS011;6305;48.398;11.762;2023-01-05T09:54:46;1.38;;;1.13;;
12480;SDS011;6305;48.398;11.762;2023-01-05T09:57:14;5.22;;;1.27;;
12480;SDS011;6305;48.398;11.762;2023-01-05T09:59:44;2.85;;;1.17;;
12480;SDS011;6305;48.398;11.762;2023-01-05T10:02:17;2.83;;;1.45;;
12480;SDS011;6305;48.398;11.762;2023-01-05T10:04:50;4.22;;;2.53;;
12480;SDS011;6305;48.398;11.762;2023-01-05T10:07:28;3.35;;;1.73;;
12480;SDS011;6305;48.398;11.762;2023-01-05T10:10:02;4.30;;;1.75;;
12480;SDS011;6305;48.398;11.762;2023-01-05T10:12:35;2.22;;;1.65;;
12480;SDS011;6305;48.398;11.762;2023-01-05T10:15:27;1.73;;;1.50;;
12480;SDS011;6305;48.398;11.762;2023-01-05T10:18:00;2.10;;;1.55;;
12480;SDS011;6305;48.398;11.762;2023-01-05T10:20:38;2.83;;;1.45;;
12480;SDS011;6305;48.398;11.762;2023-01-05T10:23:11;4.95;;;2.05;;
12480;SDS011;6305;48.398;11.762;2023-01-05T10:25:51;2.55;;;1.60;;
12480;SDS011;6305;48.398;11.762;2023-01-05T10:28:25;2.83;;;1.70;;
12480;SDS011;6305;48.398;11.762;2023-01-05T10:31:00;2.38;;;1.58;;
12480;SDS011;6305;48.398;11.762;2023-01-05T10:33:45;5.28;;;1.80;;
12480;SDS011;6305;48.398;11.762;2023-01-05T10:36:28;2.83;;;1.50;;
12480;SDS011;6305;48.398;11.762;2023-01-05T10:39:04;2.65;;;1.77;;
12480;SDS011;6305;48.398;11.762;2023-01-05T10:41:42;2.70;;;1.60;;
12480;SDS011;6305;48.398;11.762;2023-01-05T10:47:14;5.00;;;1.70;;
12480;SDS011;6305;48.398;11.762;2023-01-05T10:49:43;4.13;;;1.92;;
12480;SDS011;6305;48.398;11.762;2023-01-05T10:52:12;5.43;;;1.70;;
12480;SDS011;6305;48.398;11.762;2023-01-05T10:54:42;4.38;;;1.73;;
12480;SDS011;6305;48.398;11.762;2023-01-05T10:57:31;4.35;;;2.03;;
12480;SDS011;6305;48.398;11.762;2023-01-05T11:00:01;4.78;;;2.00;;
12480;SDS011;6305;48.398;11.762;2023-01-05T11:02:33;5.22;;;1.80;;
12480;SDS011;6305;48.398;11.762;2023-01-05T11:05:05;5.47;;;2.08;;
12480;SDS011;6305;48.398;11.762;2023-01-05T11:07:47;6.68;;;1.80;;
12480;SDS011;6305;48.398;11.762;2023-01-05T11:10:19;6.07;;;1.80;;
12480;SDS011;6305;48.398;11.762;2023-01-05T11:12:52;2.60;;;1.45;;
12480;SDS011;6305;48.398;11.762;2023-01-05T11:15:23;5.13;;;1.60;;
12480;SDS011;6305;48.398;11.762;2023-01-05T11:17:50;3.08;;;1.50;;
12480;SDS011;6305;48.398;11.762;2023-01-05T11:20:19;2.85;;;1.60;;
12480;SDS011;6305;48.398;11.762;2023-01-05T11:22:46;3.65;;;1.60;;
12480;SDS011;6305;48.398;11.762;2023-01-05T11:25:26;5.13;;;1.50;;
12480;SDS011;6305;48.398;11.762;2023-01-05T11:28:03;3.92;;;1.58;;
12480;SDS011;6305;48.398;11.762;2023-01-05T11:30:38;2.78;;;1.63;;
12480;SDS011;6305;48.398;11.762;2023-01-05T11:33:13;2.58;;;1.50;;
12480;SDS011;6305;48.398;11.762;2023-01-05T11:35:49;3.65;;;1.58;;
12480;SDS011;6305;48.398;11.762;2023-01-05T11:38:20;2.50;;;1.42;;
12480;SDS011;6305;48.398;11.762;2023-01-05T11:40:52;3.40;;;1.55;;
12480;SDS011;6305;48.398;11.762;2023-01-05T11:43:21;3.55;;;1.67;;
12480;SDS011;6305;48.398;11.762;2023-01-05T11:45:50;4.97;;;1.60;;
12480;SDS011;6305;48.398;11.762;2023-01-05T11:48:20;3.45;;;1.48;;
12480;SDS011;6305;48.398;11.762;2023-01-05T11:50:57;2.10;;;1.50;;
12480;SDS011;6305;48.398;11.762;2023-01-05T11:53:33;3.70;;;1.60;;
12480;SDS011;6305;48.398;11.762;2023-01-05T11:56:12;2.90;;;1.70;;
12480;SDS011;6305;48.398;11.762;2023-01-05T11:58:44;2.70;;;1.70;;
12480;SDS011;6305;48.398;11.762;2023-01-05T12:04:35;1.85;;;1.45;;
12480;SDS011;6305;48.398;11.762;2023-01-05T12:07:22;3.35;;;1.98;;
12480;SDS011;6305;48.398;11.762;2023-01-05T12:10:01;2.78;;;1.30;;
12480;SDS011;6305;48.398;11.762;2023-01-05T12:12:44;1.50;;;1.40;;
12480;SDS011;6305;48.398;11.762;2023-01-05T12:15:29;3.85;;;1.40;;
12480;SDS011;6305;48.398;11.762;2023-01-05T12:18:15;3.22;;;1.60;;
12480;SDS011;6305;48.398;11.762;2023-01-05T12:20:55;3.67;;;1.83;;
12480;SDS011;6305;48.398;11.762;2023-01-05T12:23:33;2.60;;;1.60;;
12480;SDS011;6305;48.398;11.762;2023-01-05T12:26:20;1.95;;;1.23;;
12480;SDS011;6305;48.398;11.762;2023-01-05T12:28:59;2.17;;;1.38;;
12480;SDS011;6305;48.398;11.762;2023-01-05T12:31:39;2.30;;;1.30;;
12480;SDS011;6305;48.398;11.762;2023-01-05T12:34:22;2.30;;;1.30;;
12480;SDS011;6305;48.398;11.762;2023-01-05T12:37:05;3.80;;;1.63;;
12480;SDS011;6305;48.398;11.762;2023-01-05T12:40:01;2.13;;;1.20;;
12480;SDS011;6305;48.398;11.762;2023-01-05T12:45:40;3.13;;;1.67;;
12480;SDS011;6305;48.398;11.762;2023-01-05T12:48:16;2.60;;;1.35;;
12480;SDS011;6305;48.398;11.762;2023-01-05T12:50:48;2.17;;;1.40;;
12480;SDS011;6305;48.398;11.762;2023-01-05T12:53:25;3.55;;;1.60;;
12480;SDS011;6305;48.398;11.762;2023-01-05T12:56:01;4.60;;;1.80;;
12480;SDS011;6305;48.398;11.762;2023-01-05T12:58:35;5.07;;;1.70;;
12480;SDS011;6305;48.398;11.762;2023-01-05T13:01:05;4.28;;;1.30;;
12480;SDS011;6305;48.398;11.762;2023-01-05T13:03:39;6.85;;;2.10;;
12480;SDS011;6305;48.398;11.762;2023-01-05T13:06:12;5.95;;;1.70;;
12480;SDS011;6305;48.398;11.762;2023-01-05T13:08:42;5.32;;;1.50;;
12480;SDS011;6305;48.398;11.762;2023-01-05T13:11:17;3.55;;;1.55;;
12480;SDS011;6305;48.398;11.762;2023-01-05T13:13:48;5.35;;;1.48;;
12480;SDS011;6305;48.398;11.762;2023-01-05T13:16:18;6.57;;;1.58;;
12480;SDS011;6305;48.398;11.762;2023-01-05T13:18:49;5.88;;;1.40;;
12480;SDS011;6305;48.398;11.762;2023-01-05T13:21:20;8.25;;;1.80;;
12480;SDS011;6305;48.398;11.762;2023-01-05T13:23:49;3.95;;;1.30;;
12480;SDS011;6305;48.398;11.762;2023-01-05T13:26:20;5.72;;;1.50;;
12480;SDS011;6305;48.398;11.762;2023-01-05T13:28:48;4.45;;;1.50;;
12480;SDS011;6305;48.398;11.762;2023-01-05T13:34:24;5.10;;;1.48;;
12480;SDS011;6305;48.398;11.762;2023-01-05T13:40:26;4.95;;;1.30;;
12480;SDS011;6305;48.398;11.762;2023-01-05T13:43:16;3.40;;;1.40;;
12480;SDS011;6305;48.398;11.762;2023-01-05T13:46:25;4.78;;;1.50;;
12480;SDS011;6305;48.398;11.762;2023-01-05T13:49:18;3.83;;;1.20;;
12480;SDS011;6305;48.398;11.762;2023-01-05T13:51:58;4.63;;;1.33;;
12480;SDS011;6305;48.398;11.762;2023-01-05T13:54:32;7.20;;;1.35;;
12480;SDS011;6305;48.398;11.762;2023-01-05T13:57:05;8.32;;;1.90;;
12480;SDS011;6305;48.398;11.762;2023-01-05T13:59:35;6.65;;;1.70;;
12480;SDS011;6305;48.398;11.762;2023-01-05T14:02:03;3.90;;;1.58;;
12480;SDS011;6305;48.398;11.762;2023-01-05T14:04:45;6.78;;;1.50;;
12480;SDS011;6305;48.398;11.762;2023-01-05T14:07:13;5.95;;;1.77;;
12480;SDS011;6305;48.398;11.762;2023-01-05T14:09:42;4.68;;;1.92;;
12480;SDS011;6305;48.398;11.762;2023-01-05T14:12:25;6.45;;;1.60;;
12480;SDS011;6305;48.398;11.762;2023-01-05T14:15:28;6.10;;;1.67;;
12480;SDS011;6305;48.398;11.762;2023-01-05T14:18:02;6.85;;;1.50;;
12480;SDS011;6305;48.398;11.762;2023-01-05T14:20:37;4.63;;;1.75;;
12480;SDS011;6305;48.398;11.762;2023-01-05T14:32:34;4.60;;;1.55;;
12480;SDS011;6305;48.398;11.762;2023-01-05T14:35:07;5.43;;;1.52;;
12480;SDS011;6305;48.398;11.762;2023-01-05T14:37:50;5.05;;;1.50;;
12480;SDS011;6305;48.398;11.762;2023-01-05T14:40:27;8.68;;;1.40;;
12480;SDS011;6305;48.398;11.762;2023-01-05T14:43:04;5.65;;;1.30;;
12480;SDS011;6305;48.398;11.762;2023-01-05T14:45:34;4.97;;;1.40;;
12480;SDS011;6305;48.398;11.762;2023-01-05T14:48:21;6.22;;;1.70;;
12480;SDS011;6305;48.398;11.762;2023-01-05T14:51:05;6.72;;;1.88;;
12480;SDS011;6305;48.398;11.762;2023-01-05T14:53:41;6.43;;;1.70;;
12480;SDS011;6305;48.398;11.762;2023-01-05T14:56:14;6.22;;;1.58;;
12480;SDS011;6305;48.398;11.762;2023-01-05T14:58:54;7.68;;;1.88;;
12480;SDS011;6305;48.398;11.762;2023-01-05T15:01:32;4.50;;;1.48;;
12480;SDS011;6305;48.398;11.762;2023-01-05T15:04:06;6.65;;;1.95;;
12480;SDS011;6305;48.398;11.762;2023-01-05T15:06:40;10.57;;;1.85;;
12480;SDS011;6305;48.398;11.762;2023-01-05T15:09:19;9.57;;;1.73;;
12480;SDS011;6305;48.398;11.762;2023-01-05T15:12:08;6.32;;;1.38;;
12480;SDS011;6305;48.398;11.762;2023-01-05T15:17:57;6.95;;;1.98;;
12480;SDS011;6305;48.398;11.762;2023-01-05T15:21:03;6.15;;;1.50;;
12480;SDS011;6305;48.398;11.762;2023-01-05T15:26:47;6.25;;;1.40;;
12480;SDS011;6305;48.398;11.762;2023-01-05T15:29:37;3.83;;;1.35;;
12480;SDS011;6305;48.398;11.762;2023-01-05T15:32:15;7.97;;;1.52;;
12480;SDS011;6305;48.398;11.762;2023-01-05T15:34:46;8.57;;;1.63;;
12480;SDS011;6305;48.398;11.762;2023-01-05T15:37:21;12.25;;;1.98;;
12480;SDS011;6305;48.398;11.762;2023-01-05T15:39:56;7.75;;;1.85;;
12480;SDS011;6305;48.398;11.762;2023-01-05T15:42:30;6.10;;;1.75;;
12480;SDS011;6305;48.398;11.762;2023-01-05T15:45:03;5.80;;;2.22;;
12480;SDS011;6305;48.398;11.762;2023-01-05T15:47:34;5.93;;;1.55;;
12480;SDS011;6305;48.398;11.762;2023-01-05T15:50:03;8.63;;;1.77;;
12480;SDS011;6305;48.398;11.762;2023-01-05T15:52:37;8.77;;;1.92;;